createdAt,value
2017-08-03T00:02:23.120Z,79.80
2017-08-03T00:04:49.073Z,80.00
2017-08-03T00:07:15.056Z,80.20
2017-08-03T00:09:40.982Z,80.70
2017-08-03T00:12:06.949Z,81.50
2017-08-03T00:14:32.879Z,82.10
2017-08-03T00:16:58.831Z,82.30
2017-08-03T00:19:24.780Z,82.30
2017-08-03T00:21:50.704Z,82.00
2017-08-03T00:24:16.636Z,81.70
2017-08-03T00:26:42.613Z,81.80
2017-08-03T00:29:08.576Z,81.20
2017-08-03T00:31:34.519Z,81.80
2017-08-03T00:34:00.514Z,82.80
2017-08-03T00:36:26.443Z,82.00
2017-08-03T00:38:52.419Z,81.70
2017-08-03T00:41:18.359Z,82.10
2017-08-03T00:43:44.276Z,82.30
2017-08-03T00:46:10.227Z,82.50
2017-08-03T00:48:36.377Z,82.50
2017-08-03T00:51:02.465Z,82.70
2017-08-03T00:53:28.441Z,82.90
2017-08-03T00:55:54.389Z,82.80
2017-08-03T00:58:20.336Z,83.10
2017-08-03T01:00:46.255Z,83.20
2017-08-03T01:03:12.205Z,83.60
2017-08-03T01:05:38.825Z,83.70
2017-08-03T01:08:04.802Z,83.70
2017-08-03T01:10:31.571Z,83.60
2017-08-03T01:12:57.516Z,83.00
2017-08-03T01:15:23.465Z,83.10
2017-08-03T01:17:49.403Z,82.70
2017-08-03T01:20:15.404Z,82.90
2017-08-03T01:22:41.402Z,83.10
2017-08-03T01:25:07.328Z,83.40
2017-08-03T01:27:33.303Z,84.00
2017-08-03T01:29:59.267Z,83.40
2017-08-03T01:32:25.222Z,83.30
2017-08-03T01:34:51.210Z,82.80
2017-08-03T01:37:17.152Z,83.30
2017-08-03T01:39:43.085Z,83.50
2017-08-03T01:42:09.060Z,83.90
2017-08-03T01:44:35.052Z,84.90
2017-08-03T01:47:10.145Z,84.80
2017-08-03T01:49:36.100Z,84.90
2017-08-03T01:52:02.054Z,84.80
2017-08-03T01:54:27.977Z,84.60
2017-08-03T01:56:53.976Z,84.80
2017-08-03T01:59:19.897Z,84.80
2017-08-03T02:01:45.851Z,85.00
2017-08-03T02:04:12.538Z,85.00
2017-08-03T02:06:38.479Z,84.90
2017-08-03T02:09:04.434Z,85.60
2017-08-03T02:11:30.462Z,86.60
2017-08-03T02:13:56.387Z,86.40
2017-08-03T02:16:22.305Z,86.10
2017-08-03T02:18:48.284Z,85.80
2017-08-03T02:21:14.214Z,85.90
2017-08-03T02:23:40.130Z,86.10
2017-08-03T02:26:06.067Z,86.20
2017-08-03T02:28:31.998Z,85.60
2017-08-03T02:30:57.928Z,85.40
2017-08-03T02:33:23.868Z,85.60
2017-08-03T02:35:49.782Z,86.20
2017-08-03T02:38:15.696Z,86.50
2017-08-03T02:40:41.667Z,86.80
2017-08-03T02:43:07.694Z,86.90
2017-08-03T02:45:33.713Z,86.80
2017-08-03T02:47:59.676Z,86.90
2017-08-03T02:50:25.586Z,86.90
2017-08-03T02:52:51.531Z,86.70
2017-08-03T02:55:17.454Z,86.40
2017-08-03T02:57:43.447Z,86.40
2017-08-03T03:00:09.402Z,86.50
2017-08-03T03:02:35.369Z,87.10
2017-08-03T03:05:01.972Z,87.50
2017-08-03T03:07:27.871Z,87.60
2017-08-03T03:09:53.793Z,87.40
2017-08-03T03:12:19.720Z,87.20
2017-08-03T03:14:45.687Z,87.20
2017-08-03T03:17:11.655Z,86.80
2017-08-03T03:19:37.578Z,86.80
2017-08-03T03:22:03.586Z,87.00
2017-08-03T03:24:29.525Z,87.00
2017-08-03T03:26:55.491Z,87.00
2017-08-03T03:29:21.543Z,87.20
2017-08-03T03:31:47.495Z,87.60
2017-08-03T03:34:13.439Z,88.10
2017-08-03T03:36:39.392Z,88.20
2017-08-03T03:39:05.359Z,88.50
2017-08-03T03:41:31.295Z,88.60
2017-08-03T03:43:57.252Z,88.80
2017-08-03T03:46:23.267Z,88.80
2017-08-03T03:48:49.230Z,88.80
2017-08-03T03:51:15.227Z,89.00
2017-08-03T03:53:41.193Z,89.00
2017-08-03T03:56:07.146Z,88.90
2017-08-03T03:58:33.083Z,89.10
2017-08-03T04:00:59.022Z,89.00
2017-08-03T04:03:25.672Z,88.90
2017-08-03T04:05:51.624Z,88.90
2017-08-03T04:08:17.576Z,88.80
2017-08-03T04:10:43.489Z,89.10
2017-08-03T04:13:09.453Z,89.10
2017-08-03T04:15:35.572Z,89.40
2017-08-03T04:18:01.567Z,89.20
2017-08-03T04:20:27.482Z,89.10
2017-08-03T04:22:53.430Z,89.40
2017-08-03T04:25:19.365Z,89.40
2017-08-03T04:27:46.186Z,89.30
2017-08-03T04:30:12.116Z,89.40
2017-08-03T04:32:38.051Z,89.40
2017-08-03T04:35:04.023Z,89.50
2017-08-03T04:37:29.975Z,89.50
2017-08-03T04:39:55.913Z,89.80
2017-08-03T04:42:21.851Z,90.80
2017-08-03T04:44:47.787Z,91.50
2017-08-03T04:47:13.728Z,91.80
2017-08-03T04:49:39.667Z,92.10
2017-08-03T04:52:05.603Z,92.00
2017-08-03T04:54:31.543Z,92.20
2017-08-03T04:56:57.511Z,92.20
2017-08-03T04:59:23.488Z,92.40
2017-08-03T05:01:49.428Z,92.50
2017-08-03T05:04:15.370Z,93.00
2017-08-03T05:06:41.300Z,93.00
2017-08-03T05:09:07.363Z,92.70
2017-08-03T05:11:33.331Z,93.10
2017-08-03T05:13:59.278Z,92.60
2017-08-03T05:16:25.249Z,91.90
2017-08-03T05:18:51.211Z,92.50
2017-08-03T05:21:17.907Z,92.90
2017-08-03T05:23:43.852Z,92.80
2017-08-03T05:26:09.792Z,92.90
2017-08-03T05:28:35.812Z,93.40
2017-08-03T05:31:02.512Z,93.70
2017-08-03T05:33:28.471Z,93.60
2017-08-03T05:35:54.411Z,93.80
2017-08-03T05:38:20.391Z,94.00
2017-08-03T05:40:46.352Z,93.70
2017-08-03T05:43:13.088Z,93.70
2017-08-03T05:45:39.008Z,93.70
2017-08-03T05:48:04.937Z,93.70
2017-08-03T05:50:30.899Z,93.90
2017-08-03T05:52:56.851Z,93.80
2017-08-03T05:55:22.790Z,93.60
2017-08-03T05:57:49.465Z,94.10
2017-08-03T06:00:15.387Z,94.10
2017-08-03T06:02:41.342Z,94.40
2017-08-03T06:05:07.288Z,94.70
2017-08-03T06:07:33.214Z,94.70
2017-08-03T06:09:59.150Z,94.20
2017-08-03T06:12:25.064Z,94.30
2017-08-03T06:14:51.027Z,94.70
2017-08-03T06:17:16.955Z,94.60
2017-08-03T06:19:42.900Z,94.60
2017-08-03T06:22:09.609Z,94.80
2017-08-03T06:24:35.544Z,94.80
2017-08-03T06:27:01.507Z,95.00
2017-08-03T06:29:27.454Z,95.00
2017-08-03T06:31:53.391Z,95.30
2017-08-03T06:34:19.330Z,95.40
2017-08-03T06:36:45.427Z,95.60
2017-08-03T06:39:11.372Z,95.50
2017-08-03T06:41:37.307Z,95.40
2017-08-03T06:44:03.381Z,95.40
2017-08-03T06:46:29.343Z,95.40
2017-08-03T06:48:55.279Z,95.70
2017-08-03T06:51:21.202Z,95.70
2017-08-03T06:53:47.163Z,95.70
2017-08-03T06:56:13.147Z,95.60
2017-08-03T06:58:39.114Z,95.90
2017-08-03T07:01:05.117Z,95.70
2017-08-03T07:03:31.022Z,95.20
2017-08-03T07:05:57.324Z,95.40
2017-08-03T07:08:23.293Z,95.00
2017-08-03T07:10:49.267Z,95.10
2017-08-03T07:13:15.233Z,95.10
2017-08-03T07:15:41.169Z,95.40
2017-08-03T07:18:07.152Z,95.90
2017-08-03T07:20:33.879Z,96.50
2017-08-03T07:22:59.849Z,96.30
2017-08-03T07:25:25.832Z,96.30
2017-08-03T07:27:51.803Z,96.40
2017-08-03T07:30:17.770Z,96.40
2017-08-03T07:32:43.743Z,96.50
2017-08-03T07:35:10.214Z,96.60
2017-08-03T07:37:36.156Z,96.70
2017-08-03T07:40:02.156Z,96.70
2017-08-03T07:42:28.107Z,96.80
2017-08-03T07:44:54.055Z,97.00
2017-08-03T07:47:20.040Z,97.00
2017-08-03T07:49:45.980Z,96.90
2017-08-03T07:52:11.924Z,97.00
2017-08-03T07:54:37.875Z,97.10
2017-08-03T07:57:03.832Z,96.90
2017-08-03T07:59:29.795Z,96.80
2017-08-03T08:01:55.750Z,96.70
2017-08-03T08:04:21.703Z,96.70
2017-08-03T08:06:47.676Z,96.50
2017-08-03T08:09:13.633Z,96.70
2017-08-03T08:11:39.756Z,96.70
2017-08-03T08:14:05.950Z,96.80
2017-08-03T08:16:31.908Z,96.90
2017-08-03T08:18:57.900Z,97.10
2017-08-03T08:21:23.880Z,97.40
2017-08-03T08:23:49.827Z,97.40
2017-08-03T08:26:15.759Z,97.50
2017-08-03T08:28:41.680Z,97.40
2017-08-03T08:31:07.665Z,97.30
2017-08-03T08:33:33.640Z,97.10
2017-08-03T08:35:59.582Z,97.20
2017-08-03T08:38:25.530Z,97.30
2017-08-03T08:40:51.481Z,97.20
2017-08-03T08:43:17.467Z,96.80
2017-08-03T08:45:43.396Z,96.80
2017-08-03T08:48:09.367Z,97.00
2017-08-03T08:50:35.431Z,97.40
2017-08-03T08:53:01.447Z,97.40
2017-08-03T08:55:27.434Z,97.20
2017-08-03T08:57:53.574Z,97.20
2017-08-03T09:00:19.517Z,97.40
2017-08-03T09:02:45.460Z,97.40
2017-08-03T09:05:11.567Z,97.70
2017-08-03T09:07:37.560Z,97.70
2017-08-03T09:10:03.812Z,97.60
2017-08-03T09:12:29.845Z,97.60
2017-08-03T09:14:55.936Z,97.60
2017-08-03T09:17:21.939Z,97.50
2017-08-03T09:19:47.894Z,97.40
2017-08-03T09:22:14.065Z,97.50
2017-08-03T09:24:40.055Z,97.40
2017-08-03T09:27:06.010Z,97.50
2017-08-03T09:29:32.005Z,97.40
2017-08-03T09:31:57.990Z,97.40
2017-08-03T09:34:23.956Z,97.20
2017-08-03T09:36:49.919Z,96.80
2017-08-03T09:39:15.879Z,97.00
2017-08-03T09:41:41.880Z,97.30
2017-08-03T09:44:07.895Z,96.90
2017-08-03T09:46:34.108Z,96.80
2017-08-03T09:49:00.092Z,96.70
2017-08-03T09:51:26.067Z,96.80
2017-08-03T09:53:52.076Z,95.90
2017-08-03T09:56:18.162Z,95.90
2017-08-03T09:58:44.096Z,95.80
2017-08-03T10:01:10.472Z,95.80
2017-08-03T10:03:39.903Z,95.70
2017-08-03T10:06:06.168Z,95.60
2017-08-03T10:08:33.441Z,95.60
2017-08-03T10:11:01.556Z,95.50
2017-08-03T10:13:29.507Z,95.30
2017-08-03T10:18:27.850Z,94.90
2017-08-03T10:20:57.664Z,94.50
2017-08-03T10:23:23.639Z,94.60
2017-08-03T10:25:49.734Z,94.50
2017-08-03T10:28:15.721Z,94.30
2017-08-03T10:30:41.804Z,93.70
2017-08-03T10:33:07.839Z,93.30
2017-08-03T10:35:49.999Z,93.30
2017-08-03T10:38:16.057Z,93.00
2017-08-03T10:40:42.160Z,93.00
2017-08-03T10:43:08.279Z,92.90
2017-08-03T10:45:34.271Z,92.70
2017-08-03T10:48:00.286Z,92.40
2017-08-03T10:50:27.203Z,92.60
2017-08-03T10:52:53.523Z,92.60
2017-08-03T10:55:19.727Z,92.60
2017-08-03T10:57:45.952Z,92.20
2017-08-03T11:00:12.389Z,92.40
2017-08-03T11:02:38.707Z,92.60
2017-08-03T11:05:05.177Z,92.90
2017-08-03T11:07:31.407Z,92.40
2017-08-03T11:09:57.514Z,92.20
2017-08-03T11:12:23.450Z,92.00
2017-08-03T11:14:49.399Z,92.10
2017-08-03T11:17:15.383Z,92.00
2017-08-03T11:19:42.244Z,92.10
2017-08-03T11:22:08.498Z,91.80
2017-08-03T11:24:35.415Z,91.70
2017-08-03T11:27:06.900Z,91.70
2017-08-03T11:32:10.716Z,91.60
2017-08-03T11:34:36.688Z,91.60
2017-08-03T11:37:02.650Z,91.50
2017-08-03T11:39:29.219Z,91.10
2017-08-03T11:41:55.481Z,91.20
2017-08-03T11:44:22.703Z,91.30
2017-08-03T11:46:48.811Z,90.80
2017-08-03T11:49:14.743Z,90.80
2017-08-03T11:51:40.710Z,90.70
2017-08-03T11:54:06.813Z,90.20
2017-08-03T11:56:32.923Z,90.40
2017-08-03T11:58:59.730Z,89.70
2017-08-03T12:01:25.766Z,88.50
2017-08-03T12:03:51.787Z,87.50
2017-08-03T12:06:17.811Z,87.90
2017-08-03T12:08:44.135Z,86.90
2017-08-03T12:11:10.113Z,85.60
2017-08-03T12:13:36.118Z,84.70
2017-08-03T12:16:02.038Z,87.00
2017-08-03T12:18:28.168Z,86.10
2017-08-03T12:20:54.130Z,85.80
2017-08-03T12:23:20.256Z,86.20
2017-08-03T12:25:46.273Z,84.70
2017-08-03T12:28:12.205Z,84.40
2017-08-03T12:30:39.139Z,83.60
2017-08-03T12:33:05.345Z,80.50
2017-08-03T12:35:31.349Z,77.30
2017-08-03T12:37:57.486Z,76.60
2017-08-03T12:40:24.333Z,77.60
2017-08-03T12:42:52.220Z,78.20
2017-08-03T12:45:18.260Z,77.40
2017-08-03T12:47:44.366Z,76.30
2017-08-03T12:50:11.730Z,74.80
2017-08-03T12:52:37.998Z,74.90
2017-08-03T12:55:04.049Z,75.60
2017-08-03T12:57:30.301Z,75.50
2017-08-03T12:59:56.511Z,75.90
2017-08-03T13:02:22.565Z,73.40
2017-08-03T13:04:48.576Z,73.00
2017-08-03T13:07:15.679Z,74.70
2017-08-03T13:09:41.926Z,74.30
2017-08-03T13:12:08.101Z,75.00
2017-08-03T13:14:34.134Z,75.40
2017-08-03T13:17:02.007Z,75.40
2017-08-03T13:19:28.016Z,73.80
2017-08-03T13:24:30.868Z,71.20
2017-08-03T13:26:56.966Z,69.80
2017-08-03T13:29:23.674Z,69.80
2017-08-03T13:31:49.657Z,64.60
2017-08-03T13:34:16.727Z,62.30
2017-08-03T13:36:44.463Z,57.80
2017-08-03T13:39:10.488Z,60.10
2017-08-03T13:41:37.864Z,53.80
2017-08-03T13:44:03.843Z,53.60
2017-08-03T13:46:29.859Z,48.90
2017-08-03T13:48:56.960Z,47.20
2017-08-03T13:51:24.061Z,45.30
2017-08-03T13:53:50.033Z,44.00
2017-08-03T13:56:18.976Z,43.50
2017-08-03T13:58:46.468Z,42.40
2017-08-03T14:01:13.378Z,41.40
2017-08-03T14:03:39.352Z,41.10
2017-08-03T14:06:05.311Z,42.20
2017-08-03T14:08:31.282Z,43.00
2017-08-03T14:10:57.387Z,42.20
2017-08-03T14:13:23.373Z,42.50
2017-08-03T14:15:49.302Z,42.40
2017-08-03T14:18:15.283Z,42.80
2017-08-03T14:20:41.245Z,43.00
2017-08-03T14:23:07.243Z,43.40
2017-08-03T14:25:33.955Z,44.70
2017-08-03T14:27:59.900Z,44.70
2017-08-03T14:30:25.911Z,44.80
2017-08-03T14:32:51.910Z,44.20
2017-08-03T14:35:17.901Z,44.40
2017-08-03T14:37:43.867Z,43.80
2017-08-03T14:40:09.863Z,44.00
2017-08-03T14:42:35.841Z,44.10
2017-08-03T14:45:03.991Z,44.50
2017-08-03T14:47:29.941Z,44.70
2017-08-03T14:49:56.307Z,45.20
2017-08-03T14:52:22.368Z,45.40
2017-08-03T14:54:49.306Z,45.00
2017-08-03T14:57:15.320Z,44.50
2017-08-03T14:59:41.913Z,44.50
2017-08-03T15:02:07.925Z,44.80
2017-08-03T15:04:33.896Z,45.30
2017-08-03T15:07:00.899Z,45.00
2017-08-03T15:09:26.867Z,45.80
2017-08-03T15:11:53.044Z,46.50
2017-08-03T15:14:19.028Z,47.50
2017-08-03T15:16:45.036Z,48.30
2017-08-03T15:19:11.174Z,48.10
2017-08-03T15:21:37.110Z,48.10
2017-08-03T15:24:03.123Z,48.20
2017-08-03T15:26:29.901Z,48.00
2017-08-03T15:28:56.396Z,48.60
2017-08-03T15:31:22.439Z,48.20
2017-08-03T15:33:48.680Z,49.10
2017-08-03T15:36:14.708Z,48.90
2017-08-03T15:38:42.323Z,49.30
2017-08-03T15:41:08.354Z,49.10
2017-08-03T15:43:34.593Z,49.40
2017-08-03T15:46:01.349Z,50.20
2017-08-03T15:48:27.456Z,50.10
2017-08-03T15:50:58.342Z,49.60
2017-08-03T15:53:24.402Z,49.10
2017-08-03T15:55:51.147Z,50.50
2017-08-03T15:58:18.068Z,50.30
2017-08-03T16:00:44.143Z,51.20
2017-08-03T16:03:10.227Z,51.70
2017-08-03T16:05:36.268Z,51.40
2017-08-03T16:08:02.397Z,51.80
2017-08-03T16:10:28.393Z,51.40
2017-08-03T16:12:54.431Z,51.70
2017-08-03T16:15:20.427Z,51.70
2017-08-03T16:17:46.366Z,50.70
2017-08-03T16:20:13.057Z,50.80
2017-08-03T16:22:39.779Z,50.80
2017-08-03T16:25:06.501Z,51.30
2017-08-03T16:27:32.478Z,51.40
2017-08-03T16:29:58.720Z,51.90
2017-08-03T16:32:25.449Z,52.20
2017-08-03T16:34:52.369Z,52.10
2017-08-03T16:37:18.343Z,51.50
2017-08-03T16:39:45.862Z,50.20
2017-08-03T16:42:11.814Z,50.20
2017-08-03T16:44:38.127Z,50.20
2017-08-03T16:47:04.369Z,50.60
2017-08-03T16:49:30.588Z,50.80
2017-08-03T16:51:57.546Z,50.90
2017-08-03T16:54:24.337Z,50.40
2017-08-03T16:56:50.595Z,50.30
2017-08-03T16:59:16.638Z,50.80
2017-08-03T17:01:42.766Z,51.30
2017-08-03T17:04:09.782Z,51.40
2017-08-03T17:06:35.830Z,51.00
2017-08-03T17:09:02.666Z,51.00
2017-08-03T17:11:29.598Z,50.70
2017-08-03T17:13:55.539Z,50.60
2017-08-03T17:16:21.752Z,50.30
2017-08-03T17:18:47.705Z,50.30
2017-08-03T17:21:13.702Z,51.10
2017-08-03T17:23:39.661Z,51.30
2017-08-03T17:26:05.867Z,51.40
2017-08-03T17:28:31.943Z,51.50
2017-08-03T17:30:58.095Z,51.50
2017-08-03T17:33:24.124Z,51.10
2017-08-03T17:35:50.151Z,51.00
2017-08-03T17:38:16.250Z,51.10
2017-08-03T17:40:43.075Z,51.10
2017-08-03T17:43:09.066Z,51.10
2017-08-03T17:45:35.039Z,51.70
2017-08-03T17:48:01.157Z,50.90
2017-08-03T17:50:27.189Z,51.90
2017-08-03T17:52:53.136Z,51.90
2017-08-03T17:55:19.112Z,51.90
2017-08-03T17:57:45.358Z,52.20
2017-08-03T18:00:11.477Z,52.30
2017-08-03T18:02:37.533Z,52.60
2017-08-03T18:05:03.653Z,52.30
2017-08-03T18:07:29.639Z,52.60
2017-08-03T18:09:55.615Z,52.70
2017-08-03T18:12:21.678Z,52.60
2017-08-03T18:14:47.754Z,52.40
2017-08-03T18:17:13.756Z,52.40
2017-08-03T18:19:39.736Z,52.60
2017-08-03T18:22:05.745Z,52.90
2017-08-03T18:24:31.839Z,52.50
2017-08-03T18:26:58.043Z,52.10
2017-08-03T18:29:24.028Z,52.20
2017-08-03T18:31:50.109Z,52.40
2017-08-03T18:34:16.824Z,52.70
2017-08-03T18:36:42.784Z,52.60
2017-08-03T18:39:08.791Z,52.60
2017-08-03T18:41:35.079Z,52.80
2017-08-03T18:44:01.281Z,52.90
2017-08-03T18:46:27.273Z,53.20
2017-08-03T18:48:53.276Z,53.30
2017-08-03T18:51:19.321Z,53.70
2017-08-03T18:53:45.317Z,53.70
2017-08-03T18:56:11.267Z,53.90
2017-08-03T18:58:38.302Z,54.00
2017-08-03T19:01:04.986Z,54.20
2017-08-03T19:03:30.936Z,54.10
2017-08-03T19:05:56.944Z,54.40
2017-08-03T19:08:23.822Z,54.50
2017-08-03T19:10:50.862Z,55.00
2017-08-03T19:13:17.670Z,54.90
2017-08-03T19:15:45.699Z,55.10
2017-08-03T19:18:11.633Z,55.40
2017-08-03T19:20:37.630Z,55.40
2017-08-03T19:23:03.654Z,55.70
2017-08-03T19:25:30.393Z,55.30
2017-08-03T19:27:56.371Z,55.30
2017-08-03T19:30:22.362Z,55.70
2017-08-03T19:32:48.340Z,56.30
2017-08-03T19:35:14.306Z,55.90
2017-08-03T19:37:41.260Z,55.70
2017-08-03T19:40:07.208Z,55.90
2017-08-03T19:42:33.204Z,55.80
2017-08-03T19:44:59.182Z,55.60
2017-08-03T19:47:25.203Z,55.50
2017-08-03T19:49:51.152Z,55.60
2017-08-03T19:52:18.047Z,55.60
2017-08-03T19:54:44.300Z,55.50
2017-08-03T19:57:10.304Z,55.10
2017-08-03T19:59:36.339Z,55.30
2017-08-03T20:02:02.368Z,55.50
2017-08-03T20:04:29.194Z,55.60
2017-08-03T20:07:04.148Z,55.70
2017-08-03T20:09:35.903Z,55.60
2017-08-03T20:12:01.891Z,55.80
2017-08-03T20:14:27.855Z,55.80
2017-08-03T20:16:53.979Z,55.90
2017-08-03T20:19:19.962Z,56.20
2017-08-03T20:21:46.982Z,56.20
2017-08-03T20:24:13.005Z,56.30
2017-08-03T20:26:39.073Z,56.50
2017-08-03T20:29:05.813Z,56.60
2017-08-03T20:31:31.759Z,56.60
2017-08-03T20:33:57.735Z,56.50
2017-08-03T20:36:23.681Z,56.50
2017-08-03T20:38:50.404Z,56.80
2017-08-03T20:41:16.381Z,56.70
2017-08-03T20:43:42.330Z,56.80
2017-08-03T20:46:08.338Z,56.90
2017-08-03T20:48:34.369Z,56.90
2017-08-03T20:51:00.295Z,57.00
2017-08-03T20:53:26.274Z,57.20
2017-08-03T20:55:52.226Z,57.40
2017-08-03T20:58:18.220Z,57.50
2017-08-03T21:00:44.160Z,57.70
2017-08-03T21:03:10.139Z,57.70
2017-08-03T21:05:36.087Z,57.70
2017-08-03T21:08:02.892Z,57.80
2017-08-03T21:10:28.892Z,57.90
2017-08-03T21:12:54.899Z,58.10
2017-08-03T21:15:20.866Z,58.20
2017-08-03T21:17:47.572Z,58.20
2017-08-03T21:20:13.663Z,58.10
2017-08-03T21:22:39.659Z,58.30
2017-08-03T21:25:05.583Z,58.50
2017-08-03T21:27:31.561Z,58.60
2017-08-03T21:29:58.283Z,58.80
2017-08-03T21:32:24.253Z,59.10
2017-08-03T21:34:50.241Z,59.20
2017-08-03T21:37:16.240Z,59.20
2017-08-03T21:39:42.236Z,59.50
2017-08-03T21:42:08.260Z,59.70
2017-08-03T21:44:34.211Z,59.90
2017-08-03T21:47:00.156Z,59.90
2017-08-03T21:49:26.114Z,60.10
2017-08-03T21:51:52.147Z,59.80
2017-08-03T21:54:18.192Z,59.80
2017-08-03T21:56:45.118Z,59.90
2017-08-03T21:59:11.095Z,60.30
2017-08-03T22:01:37.076Z,60.00
2017-08-03T22:04:03.049Z,60.30
2017-08-03T22:06:29.163Z,60.60
2017-08-03T22:08:55.194Z,60.90
2017-08-03T22:11:21.121Z,61.60
2017-08-03T22:13:47.108Z,62.20
2017-08-03T22:16:13.056Z,62.50
2017-08-03T22:18:39.010Z,62.70
2017-08-03T22:21:05.108Z,63.00
2017-08-03T22:23:31.055Z,63.10
2017-08-03T22:25:57.021Z,63.40
2017-08-03T22:28:23.557Z,63.70
2017-08-03T22:30:49.550Z,63.90
2017-08-03T22:33:15.511Z,64.30
2017-08-03T22:35:41.443Z,64.40
2017-08-03T22:38:08.130Z,65.00
2017-08-03T22:40:34.595Z,65.00
2017-08-03T22:43:00.626Z,65.40
2017-08-03T22:45:26.555Z,65.40
2017-08-03T22:47:52.484Z,65.20
2017-08-03T22:50:18.483Z,65.40
2017-08-03T22:52:44.435Z,65.60
2017-08-03T22:55:10.391Z,65.50
2017-08-03T22:57:36.375Z,65.80
2017-08-03T23:00:02.464Z,65.80
2017-08-03T23:02:28.623Z,65.80
2017-08-03T23:04:54.793Z,65.70
2017-08-03T23:07:20.743Z,66.00
2017-08-03T23:09:47.508Z,65.70
2017-08-03T23:12:13.457Z,66.10
2017-08-03T23:14:39.467Z,66.40
2017-08-03T23:17:05.425Z,67.00
2017-08-03T23:19:31.389Z,67.10
2017-08-03T23:21:57.309Z,67.80
2017-08-03T23:24:24.051Z,68.40
2017-08-03T23:26:50.004Z,68.20
2017-08-03T23:29:15.980Z,68.30
2017-08-03T23:31:41.941Z,68.20
2017-08-03T23:34:07.887Z,68.30
2017-08-03T23:36:33.887Z,68.30
2017-08-03T23:38:59.838Z,68.70
2017-08-03T23:41:25.800Z,69.00
2017-08-03T23:43:51.736Z,69.50
2017-08-03T23:46:17.652Z,69.80
2017-08-03T23:48:43.678Z,69.80
2017-08-03T23:51:09.634Z,69.90
2017-08-03T23:53:35.564Z,70.00
2017-08-03T23:56:01.564Z,70.00
2017-08-03T23:58:27.551Z,70.40
